createdAt,value
2019-05-26T00:03:18.535Z,70.65
2019-05-26T00:08:23.885Z,69.79
2019-05-26T00:13:29.220Z,70.03
2019-05-26T00:18:35.830Z,69.71
2019-05-26T00:23:41.199Z,69.77
2019-05-26T00:28:46.543Z,69.53
2019-05-26T00:33:51.899Z,69.71
2019-05-26T00:38:57.568Z,69.43
2019-05-26T00:44:03.151Z,69.69
2019-05-26T00:49:08.701Z,69.37
2019-05-26T00:54:14.373Z,69.46
2019-05-26T00:59:19.649Z,69.15
2019-05-26T01:04:25.185Z,68.89
2019-05-26T01:09:30.644Z,69.79
2019-05-26T01:14:35.727Z,69.31
2019-05-26T01:19:40.836Z,69.11
2019-05-26T01:24:47.241Z,69.70
2019-05-26T01:29:52.927Z,70.31
2019-05-26T01:34:58.054Z,72.17
2019-05-26T01:40:03.727Z,71.18
2019-05-26T01:45:09.896Z,70.51
2019-05-26T01:50:15.158Z,72.13
2019-05-26T01:55:20.286Z,71.87
2019-05-26T02:00:25.749Z,71.82
2019-05-26T02:05:31.459Z,72.88
2019-05-26T02:10:36.791Z,72.52
2019-05-26T02:15:42.255Z,72.11
2019-05-26T02:20:47.627Z,72.54
2019-05-26T02:25:53.079Z,73.13
2019-05-26T02:30:58.806Z,72.68
2019-05-26T02:36:04.356Z,72.76
2019-05-26T02:41:09.663Z,72.87
2019-05-26T02:46:14.817Z,72.80
2019-05-26T02:51:20.933Z,72.68
2019-05-26T02:56:26.264Z,72.93
2019-05-26T03:01:32.353Z,72.75
2019-05-26T03:06:38.725Z,72.29
2019-05-26T03:11:46.918Z,72.14
2019-05-26T03:16:54.267Z,72.63
2019-05-26T03:22:00.708Z,72.25
2019-05-26T03:27:07.117Z,72.16
2019-05-26T03:32:12.780Z,72.06
2019-05-26T03:37:18.148Z,72.17
2019-05-26T03:42:25.716Z,71.90
2019-05-26T03:47:31.326Z,72.04
2019-05-26T03:52:36.975Z,71.88
2019-05-26T03:57:42.343Z,71.66
2019-05-26T04:02:47.494Z,71.46
2019-05-26T04:07:52.942Z,71.26
2019-05-26T04:12:58.162Z,70.88
2019-05-26T04:18:03.558Z,70.14
2019-05-26T04:23:08.852Z,69.66
2019-05-26T04:28:14.208Z,69.02
2019-05-26T04:33:19.318Z,66.49
2019-05-26T04:38:27.673Z,64.93
2019-05-26T04:43:32.888Z,64.41
2019-05-26T04:48:39.205Z,63.83
2019-05-26T04:53:44.459Z,63.28
2019-05-26T04:58:49.713Z,62.86
2019-05-26T05:03:55.076Z,61.42
2019-05-26T05:09:00.633Z,62.38
2019-05-26T05:14:06.506Z,60.55
2019-05-26T05:19:11.977Z,60.30
2019-05-26T05:24:18.488Z,59.25
2019-05-26T05:29:23.818Z,59.42
2019-05-26T05:34:29.085Z,59.27
2019-05-26T05:39:34.527Z,58.96
2019-05-26T05:44:39.871Z,58.70
2019-05-26T05:49:45.057Z,58.21
2019-05-26T05:54:50.382Z,57.98
2019-05-26T05:59:55.546Z,57.80
2019-05-26T06:05:00.920Z,56.02
2019-05-26T06:10:08.969Z,56.39
2019-05-26T06:15:17.290Z,55.59
2019-05-26T06:20:23.518Z,55.25
2019-05-26T06:25:28.951Z,55.38
2019-05-26T06:30:34.356Z,55.70
2019-05-26T06:35:39.426Z,56.35
2019-05-26T06:40:44.669Z,56.90
2019-05-26T06:45:50.021Z,56.37
2019-05-26T06:50:55.487Z,57.09
2019-05-26T06:56:00.692Z,57.07
2019-05-26T07:01:06.580Z,55.88
2019-05-26T07:06:11.796Z,56.31
2019-05-26T07:11:17.383Z,56.45
2019-05-26T07:16:36.783Z,56.19
2019-05-26T07:21:29.901Z,56.37
2019-05-26T07:26:35.034Z,56.19
2019-05-26T07:31:40.529Z,55.56
2019-05-26T07:36:45.970Z,53.99
2019-05-26T07:42:08.831Z,53.30
2019-05-26T07:46:58.074Z,54.63
2019-05-26T07:52:03.401Z,54.30
2019-05-26T07:57:08.830Z,54.65
2019-05-26T08:02:14.320Z,55.05
2019-05-26T08:07:22.971Z,55.10
2019-05-26T08:12:30.430Z,54.93
2019-05-26T08:17:33.751Z,54.31
2019-05-26T08:22:38.961Z,55.28
2019-05-26T08:27:44.244Z,54.77
2019-05-26T08:32:49.520Z,53.43
2019-05-26T08:37:54.744Z,52.34
2019-05-26T08:43:00.030Z,51.59
2019-05-26T08:48:06.012Z,52.22
2019-05-26T08:53:11.231Z,52.72
2019-05-26T08:58:16.370Z,52.05
2019-05-26T09:03:21.689Z,52.32
2019-05-26T09:08:26.796Z,51.63
2019-05-26T09:13:32.193Z,52.48
2019-05-26T09:18:37.490Z,53.04
2019-05-26T09:23:42.804Z,53.00
2019-05-26T09:28:48.172Z,52.76
2019-05-26T09:33:53.641Z,52.19
2019-05-26T09:38:58.759Z,52.40
2019-05-26T09:44:04.284Z,50.72
2019-05-26T09:49:09.501Z,50.60
2019-05-26T09:54:14.631Z,51.33
2019-05-26T09:59:20.114Z,51.20
2019-05-26T10:04:25.994Z,51.78
2019-05-26T10:09:31.240Z,52.33
2019-05-26T10:14:36.811Z,52.43
2019-05-26T10:19:42.272Z,51.78
2019-05-26T10:24:47.629Z,51.67
2019-05-26T10:29:53.046Z,51.67
2019-05-26T10:34:58.346Z,48.84
2019-05-26T10:40:03.724Z,48.89
2019-05-26T10:45:10.419Z,48.27
2019-05-26T10:50:16.146Z,47.43
2019-05-26T10:55:21.498Z,46.77
2019-05-26T11:00:27.286Z,45.78
2019-05-26T11:05:32.770Z,45.61
2019-05-26T11:10:38.207Z,45.14
2019-05-26T11:15:43.846Z,44.41
2019-05-26T11:20:49.271Z,44.61
2019-05-26T11:25:54.685Z,44.67
2019-05-26T11:31:00.560Z,44.50
2019-05-26T11:36:05.867Z,44.36
2019-05-26T11:41:11.170Z,44.23
2019-05-26T11:46:17.300Z,44.91
2019-05-26T11:51:24.216Z,45.18
2019-05-26T11:56:29.309Z,44.43
2019-05-26T12:01:34.773Z,44.86
2019-05-26T12:06:40.126Z,44.32
2019-05-26T12:11:45.486Z,42.31
2019-05-26T12:16:50.844Z,42.53
2019-05-26T12:21:55.947Z,41.76
2019-05-26T12:27:01.110Z,41.46
2019-05-26T12:32:06.614Z,40.40
2019-05-26T12:37:11.842Z,39.81
2019-05-26T12:42:17.332Z,39.11
2019-05-26T12:47:22.803Z,40.30
2019-05-26T12:52:28.358Z,40.98
2019-05-26T12:57:33.717Z,40.56
2019-05-26T13:02:39.166Z,40.68
2019-05-26T13:07:45.706Z,40.51
2019-05-26T13:12:53.691Z,40.86
2019-05-26T13:17:59.464Z,40.10
2019-05-26T13:23:04.921Z,39.25
2019-05-26T13:28:10.305Z,41.13
2019-05-26T13:33:15.526Z,41.71
2019-05-26T13:38:20.750Z,42.97
2019-05-26T13:43:26.146Z,43.63
2019-05-26T13:48:31.388Z,44.28
2019-05-26T13:53:36.784Z,44.65
2019-05-26T13:58:42.100Z,44.47
2019-05-26T14:03:47.358Z,45.30
2019-05-26T14:08:52.486Z,45.04
2019-05-26T14:13:58.256Z,46.07
2019-05-26T14:19:04.708Z,46.36
2019-05-26T14:24:10.062Z,45.80
2019-05-26T14:29:15.299Z,46.29
2019-05-26T14:34:20.379Z,46.19
2019-05-26T14:39:26.043Z,46.29
2019-05-26T14:44:31.635Z,46.78
2019-05-26T14:49:36.927Z,47.12
2019-05-26T14:54:41.971Z,47.04
2019-05-26T14:59:47.261Z,47.77
2019-05-26T15:04:52.494Z,48.44
2019-05-26T15:09:57.953Z,48.96
2019-05-26T15:15:03.642Z,49.16
2019-05-26T15:20:09.011Z,49.14
2019-05-26T15:25:14.727Z,49.44
2019-05-26T15:30:23.278Z,49.57
2019-05-26T15:35:28.650Z,49.84
2019-05-26T15:40:34.021Z,50.76
2019-05-26T15:45:39.461Z,51.31
2019-05-26T15:50:44.891Z,51.69
2019-05-26T15:55:50.282Z,51.79
2019-05-26T16:00:55.849Z,51.82
2019-05-26T16:06:01.007Z,52.02
2019-05-26T16:11:06.389Z,51.97
2019-05-26T16:16:11.693Z,52.63
2019-05-26T16:21:27.703Z,53.10
2019-05-26T16:26:24.171Z,53.50
2019-05-26T16:31:29.551Z,53.47
2019-05-26T16:36:36.265Z,53.98
2019-05-26T16:41:41.892Z,53.95
2019-05-26T16:46:56.062Z,54.41
2019-05-26T16:51:53.997Z,55.01
2019-05-26T16:57:00.147Z,55.63
2019-05-26T17:02:05.580Z,55.78
2019-05-26T17:07:11.050Z,56.43
2019-05-26T17:12:16.156Z,56.68
2019-05-26T17:17:21.650Z,56.71
2019-05-26T17:22:27.118Z,57.04
2019-05-26T17:27:32.492Z,57.51
2019-05-26T17:32:37.707Z,58.00
2019-05-26T17:37:42.998Z,58.38
2019-05-26T17:42:48.123Z,59.07
2019-05-26T17:47:53.393Z,59.24
2019-05-26T17:52:58.518Z,60.55
2019-05-26T17:58:03.913Z,60.48
2019-05-26T18:03:09.263Z,60.89
2019-05-26T18:08:14.824Z,61.33
2019-05-26T18:13:19.986Z,61.64
2019-05-26T18:18:25.280Z,61.88
2019-05-26T18:23:31.854Z,62.17
2019-05-26T18:28:37.335Z,62.05
2019-05-26T18:33:42.690Z,62.49
2019-05-26T18:38:47.966Z,62.78
2019-05-26T18:43:54.189Z,62.91
2019-05-26T18:48:59.273Z,62.77
2019-05-26T18:54:04.615Z,62.84
2019-05-26T18:59:09.879Z,63.04
2019-05-26T19:04:15.328Z,63.09
2019-05-26T19:09:20.557Z,62.96
2019-05-26T19:14:26.993Z,62.99
2019-05-26T19:19:32.269Z,62.96
2019-05-26T19:24:37.449Z,62.89
2019-05-26T19:29:42.834Z,62.82
2019-05-26T19:34:48.483Z,62.54
2019-05-26T19:39:53.746Z,62.58
2019-05-26T19:44:58.926Z,62.56
2019-05-26T19:50:10.348Z,62.43
2019-05-26T19:55:15.865Z,62.26
2019-05-26T20:00:23.398Z,62.27
2019-05-26T20:05:29.059Z,62.21
2019-05-26T20:10:34.363Z,62.18
2019-05-26T20:15:39.871Z,62.38
2019-05-26T20:20:45.220Z,62.86
2019-05-26T20:25:50.901Z,62.82
2019-05-26T20:30:56.230Z,62.91
2019-05-26T20:36:01.518Z,63.09
2019-05-26T20:41:07.078Z,63.05
2019-05-26T20:46:12.210Z,63.60
2019-05-26T20:51:17.472Z,63.45
2019-05-26T20:56:22.997Z,63.62
2019-05-26T21:01:28.321Z,63.69
2019-05-26T21:06:33.697Z,63.95
2019-05-26T21:11:38.889Z,64.08
2019-05-26T21:16:44.266Z,63.98
2019-05-26T21:21:49.476Z,63.60
2019-05-26T21:26:54.562Z,63.48
2019-05-26T21:31:59.904Z,63.56
